sensor_id;sensor_type;location;lat;lon;timestamp;P1;durP1;ratioP1;P2;durP2;ratioP2
35028;SDS011;35394;54.282;10.070;2023-10-13T00:00:20;3.50;;;2.00;;
35028;SDS011;35394;54.282;10.070;2023-10-13T00:00:59;3.33;;;1.80;;
35028;SDS011;35394;54.282;10.070;2023-10-13T00:01:34;3.77;;;2.10;;
35028;SDS011;35394;54.282;10.070;2023-10-13T00:02:04;4.70;;;2.05;;
35028;SDS011;35394;54.282;10.070;2023-10-13T00:02:35;4.45;;;1.90;;
35028;SDS011;35394;54.282;10.070;2023-10-13T00:03:07;3.20;;;1.75;;
35028;SDS011;35394;54.282;10.070;2023-10-13T00:03:49;3.50;;;1.83;;
35028;SDS011;35394;54.282;10.070;2023-10-13T00:04:22;4.40;;;1.85;;
35028;SDS011;35394;54.282;10.070;2023-10-13T00:04:52;4.20;;;2.00;;
35028;SDS011;35394;54.282;10.070;2023-10-13T00:05:24;4.32;;;1.73;;
35028;SDS011;35394;54.282;10.070;2023-10-13T00:05:57;3.80;;;2.00;;
35028;SDS011;35394;54.282;10.070;2023-10-13T00:06:32;2.97;;;1.80;;
35028;SDS011;35394;54.282;10.070;2023-10-13T00:07:03;4.50;;;1.95;;
35028;SDS011;35394;54.282;10.070;2023-10-13T00:07:34;4.27;;;1.90;;
35028;SDS011;35394;54.282;10.070;2023-10-13T00:08:05;2.70;;;1.60;;
35028;SDS011;35394;54.282;10.070;2023-10-13T00:08:36;4.28;;;1.92;;
35028;SDS011;35394;54.282;10.070;2023-10-13T00:09:06;4.88;;;1.95;;
35028;SDS011;35394;54.282;10.070;2023-10-13T00:09:42;3.53;;;1.67;;
35028;SDS011;35394;54.282;10.070;2023-10-13T00:10:13;3.33;;;1.63;;
35028;SDS011;35394;54.282;10.070;2023-10-13T00:10:43;3.92;;;1.70;;
35028;SDS011;35394;54.282;10.070;2023-10-13T00:11:14;3.58;;;1.85;;
35028;SDS011;35394;54.282;10.070;2023-10-13T00:11:45;4.18;;;1.80;;
35028;SDS011;35394;54.282;10.070;2023-10-13T00:12:16;4.75;;;1.70;;
35028;SDS011;35394;54.282;10.070;2023-10-13T00:12:53;2.90;;;1.63;;
35028;SDS011;35394;54.282;10.070;2023-10-13T00:13:24;3.25;;;1.85;;
35028;SDS011;35394;54.282;10.070;2023-10-13T00:13:59;3.00;;;1.40;;
35028;SDS011;35394;54.282;10.070;2023-10-13T00:14:33;2.38;;;1.48;;
35028;SDS011;35394;54.282;10.070;2023-10-13T00:15:04;3.15;;;1.45;;
35028;SDS011;35394;54.282;10.070;2023-10-13T00:15:40;4.27;;;1.70;;
35028;SDS011;35394;54.282;10.070;2023-10-13T00:16:27;2.92;;;1.45;;
35028;SDS011;35394;54.282;10.070;2023-10-13T00:17:02;3.33;;;1.42;;
35028;SDS011;35394;54.282;10.070;2023-10-13T00:17:33;2.58;;;1.50;;
35028;SDS011;35394;54.282;10.070;2023-10-13T00:18:08;2.78;;;1.40;;
35028;SDS011;35394;54.282;10.070;2023-10-13T00:18:44;3.83;;;1.75;;
35028;SDS011;35394;54.282;10.070;2023-10-13T00:19:15;4.22;;;1.70;;
35028;SDS011;35394;54.282;10.070;2023-10-13T00:19:46;3.10;;;1.63;;
35028;SDS011;35394;54.282;10.070;2023-10-13T00:20:17;3.87;;;1.57;;
35028;SDS011;35394;54.282;10.070;2023-10-13T00:20:58;2.85;;;1.40;;
35028;SDS011;35394;54.282;10.070;2023-10-13T00:21:29;2.42;;;1.38;;
35028;SDS011;35394;54.282;10.070;2023-10-13T00:22:04;3.58;;;1.75;;
35028;SDS011;35394;54.282;10.070;2023-10-13T00:22:41;3.42;;;1.48;;
35028;SDS011;35394;54.282;10.070;2023-10-13T00:23:12;3.13;;;1.48;;
35028;SDS011;35394;54.282;10.070;2023-10-13T00:23:43;3.37;;;1.47;;
35028;SDS011;35394;54.282;10.070;2023-10-13T00:24:23;3.38;;;1.60;;
35028;SDS011;35394;54.282;10.070;2023-10-13T00:24:59;4.20;;;1.70;;
35028;SDS011;35394;54.282;10.070;2023-10-13T00:25:33;3.97;;;1.75;;
35028;SDS011;35394;54.282;10.070;2023-10-13T00:26:13;4.63;;;1.80;;
35028;SDS011;35394;54.282;10.070;2023-10-13T00:26:48;3.45;;;1.90;;
35028;SDS011;35394;54.282;10.070;2023-10-13T00:27:21;4.50;;;1.98;;
35028;SDS011;35394;54.282;10.070;2023-10-13T00:27:59;5.45;;;2.08;;
35028;SDS011;35394;54.282;10.070;2023-10-13T00:28:31;3.83;;;2.20;;
35028;SDS011;35394;54.282;10.070;2023-10-13T00:29:24;4.38;;;2.15;;
35028;SDS011;35394;54.282;10.070;2023-10-13T00:30:07;4.80;;;2.03;;
35028;SDS011;35394;54.282;10.070;2023-10-13T00:31:03;5.05;;;2.15;;
35028;SDS011;35394;54.282;10.070;2023-10-13T00:31:44;5.35;;;2.30;;
35028;SDS011;35394;54.282;10.070;2023-10-13T00:32:18;4.63;;;2.22;;
35028;SDS011;35394;54.282;10.070;2023-10-13T00:32:57;4.93;;;2.38;;
35028;SDS011;35394;54.282;10.070;2023-10-13T00:33:27;6.15;;;2.55;;
35028;SDS011;35394;54.282;10.070;2023-10-13T00:33:58;4.72;;;2.40;;
35028;SDS011;35394;54.282;10.070;2023-10-13T00:34:55;4.30;;;2.40;;
35028;SDS011;35394;54.282;10.070;2023-10-13T00:35:29;4.97;;;2.22;;
35028;SDS011;35394;54.282;10.070;2023-10-13T00:36:06;5.00;;;2.30;;
35028;SDS011;35394;54.282;10.070;2023-10-13T00:36:40;4.80;;;2.33;;
35028;SDS011;35394;54.282;10.070;2023-10-13T00:37:30;5.50;;;2.50;;
35028;SDS011;35394;54.282;10.070;2023-10-13T00:38:11;4.78;;;2.40;;
35028;SDS011;35394;54.282;10.070;2023-10-13T00:38:46;4.07;;;2.08;;
35028;SDS011;35394;54.282;10.070;2023-10-13T00:39:18;4.05;;;2.00;;
35028;SDS011;35394;54.282;10.070;2023-10-13T00:39:48;4.45;;;2.22;;
35028;SDS011;35394;54.282;10.070;2023-10-13T00:40:26;4.38;;;2.22;;
35028;SDS011;35394;54.282;10.070;2023-10-13T00:40:59;5.85;;;2.33;;
35028;SDS011;35394;54.282;10.070;2023-10-13T00:41:50;5.03;;;2.40;;
35028;SDS011;35394;54.282;10.070;2023-10-13T00:42:28;4.50;;;2.13;;
35028;SDS011;35394;54.282;10.070;2023-10-13T00:43:19;4.22;;;2.10;;
35028;SDS011;35394;54.282;10.070;2023-10-13T00:43:50;4.10;;;1.83;;
35028;SDS011;35394;54.282;10.070;2023-10-13T00:44:41;4.70;;;2.05;;
35028;SDS011;35394;54.282;10.070;2023-10-13T00:45:13;3.05;;;1.70;;
35028;SDS011;35394;54.282;10.070;2023-10-13T00:45:47;4.53;;;2.10;;
35028;SDS011;35394;54.282;10.070;2023-10-13T00:46:33;3.88;;;1.70;;
35028;SDS011;35394;54.282;10.070;2023-10-13T00:47:05;4.25;;;2.00;;
35028;SDS011;35394;54.282;10.070;2023-10-13T00:47:39;3.45;;;1.80;;
35028;SDS011;35394;54.282;10.070;2023-10-13T00:48:12;4.73;;;2.07;;
35028;SDS011;35394;54.282;10.070;2023-10-13T00:48:44;3.33;;;1.70;;
35028;SDS011;35394;54.282;10.070;2023-10-13T00:49:21;3.05;;;1.80;;
35028;SDS011;35394;54.282;10.070;2023-10-13T00:49:53;5.05;;;1.90;;
35028;SDS011;35394;54.282;10.070;2023-10-13T00:50:26;4.00;;;1.90;;
35028;SDS011;35394;54.282;10.070;2023-10-13T00:50:57;4.30;;;1.90;;
35028;SDS011;35394;54.282;10.070;2023-10-13T00:51:32;5.97;;;1.85;;
35028;SDS011;35394;54.282;10.070;2023-10-13T00:52:06;3.58;;;1.67;;
35028;SDS011;35394;54.282;10.070;2023-10-13T00:52:39;4.28;;;1.85;;
35028;SDS011;35394;54.282;10.070;2023-10-13T00:53:11;3.30;;;1.70;;
35028;SDS011;35394;54.282;10.070;2023-10-13T00:53:42;4.30;;;1.83;;
35028;SDS011;35394;54.282;10.070;2023-10-13T00:54:14;5.00;;;2.00;;
35028;SDS011;35394;54.282;10.070;2023-10-13T00:54:48;3.95;;;1.80;;
35028;SDS011;35394;54.282;10.070;2023-10-13T00:55:19;4.13;;;2.00;;
35028;SDS011;35394;54.282;10.070;2023-10-13T00:55:53;3.15;;;1.70;;
35028;SDS011;35394;54.282;10.070;2023-10-13T00:56:26;2.97;;;1.60;;
35028;SDS011;35394;54.282;10.070;2023-10-13T00:56:57;3.55;;;1.90;;
35028;SDS011;35394;54.282;10.070;2023-10-13T00:57:34;4.53;;;1.80;;
35028;SDS011;35394;54.282;10.070;2023-10-13T00:58:06;3.65;;;1.80;;
35028;SDS011;35394;54.282;10.070;2023-10-13T00:58:38;3.78;;;1.90;;
35028;SDS011;35394;54.282;10.070;2023-10-13T00:59:09;3.65;;;1.77;;
35028;SDS011;35394;54.282;10.070;2023-10-13T00:59:40;4.80;;;1.80;;
35028;SDS011;35394;54.282;10.070;2023-10-13T01:00:15;3.17;;;1.70;;
35028;SDS011;35394;54.282;10.070;2023-10-13T01:00:54;3.90;;;1.92;;
35028;SDS011;35394;54.282;10.070;2023-10-13T01:01:44;5.40;;;2.20;;
35028;SDS011;35394;54.282;10.070;2023-10-13T01:02:15;3.25;;;1.65;;
35028;SDS011;35394;54.282;10.070;2023-10-13T01:03:12;3.97;;;1.80;;
35028;SDS011;35394;54.282;10.070;2023-10-13T01:03:45;3.20;;;1.90;;
35028;SDS011;35394;54.282;10.070;2023-10-13T01:04:18;4.15;;;1.73;;
35028;SDS011;35394;54.282;10.070;2023-10-13T01:04:49;3.85;;;1.90;;
35028;SDS011;35394;54.282;10.070;2023-10-13T01:05:20;4.90;;;2.00;;
35028;SDS011;35394;54.282;10.070;2023-10-13T01:05:51;4.88;;;1.92;;
35028;SDS011;35394;54.282;10.070;2023-10-13T01:06:25;3.90;;;1.70;;
35028;SDS011;35394;54.282;10.070;2023-10-13T01:06:59;3.92;;;2.10;;
35028;SDS011;35394;54.282;10.070;2023-10-13T01:07:30;4.15;;;2.03;;
35028;SDS011;35394;54.282;10.070;2023-10-13T01:08:00;3.92;;;1.90;;
35028;SDS011;35394;54.282;10.070;2023-10-13T01:08:34;3.63;;;1.83;;
35028;SDS011;35394;54.282;10.070;2023-10-13T01:09:08;4.05;;;2.10;;
35028;SDS011;35394;54.282;10.070;2023-10-13T01:09:44;2.90;;;1.90;;
35028;SDS011;35394;54.282;10.070;2023-10-13T01:10:17;4.03;;;1.98;;
35028;SDS011;35394;54.282;10.070;2023-10-13T01:10:49;3.80;;;1.90;;
35028;SDS011;35394;54.282;10.070;2023-10-13T01:11:19;3.20;;;1.70;;
35028;SDS011;35394;54.282;10.070;2023-10-13T01:11:53;4.35;;;2.13;;
35028;SDS011;35394;54.282;10.070;2023-10-13T01:12:25;3.78;;;1.92;;
35028;SDS011;35394;54.282;10.070;2023-10-13T01:12:55;3.83;;;1.92;;
35028;SDS011;35394;54.282;10.070;2023-10-13T01:13:26;4.33;;;2.00;;
35028;SDS011;35394;54.282;10.070;2023-10-13T01:13:57;3.72;;;1.92;;
35028;SDS011;35394;54.282;10.070;2023-10-13T01:14:30;3.42;;;1.83;;
35028;SDS011;35394;54.282;10.070;2023-10-13T01:15:01;3.30;;;1.95;;
35028;SDS011;35394;54.282;10.070;2023-10-13T01:15:38;3.15;;;1.80;;
35028;SDS011;35394;54.282;10.070;2023-10-13T01:16:11;3.53;;;1.90;;
35028;SDS011;35394;54.282;10.070;2023-10-13T01:16:41;4.63;;;1.90;;
35028;SDS011;35394;54.282;10.070;2023-10-13T01:17:15;4.85;;;2.05;;
35028;SDS011;35394;54.282;10.070;2023-10-13T01:17:46;3.60;;;2.00;;
35028;SDS011;35394;54.282;10.070;2023-10-13T01:18:17;5.45;;;2.15;;
35028;SDS011;35394;54.282;10.070;2023-10-13T01:18:48;3.20;;;1.80;;
35028;SDS011;35394;54.282;10.070;2023-10-13T01:19:21;3.95;;;1.95;;
35028;SDS011;35394;54.282;10.070;2023-10-13T01:19:54;3.42;;;1.80;;
35028;SDS011;35394;54.282;10.070;2023-10-13T01:20:28;3.25;;;1.83;;
35028;SDS011;35394;54.282;10.070;2023-10-13T01:20:59;3.57;;;1.77;;
35028;SDS011;35394;54.282;10.070;2023-10-13T01:21:29;4.03;;;2.13;;
35028;SDS011;35394;54.282;10.070;2023-10-13T01:22:01;3.10;;;1.80;;
35028;SDS011;35394;54.282;10.070;2023-10-13T01:22:34;4.60;;;1.98;;
35028;SDS011;35394;54.282;10.070;2023-10-13T01:23:07;3.25;;;1.90;;
35028;SDS011;35394;54.282;10.070;2023-10-13T01:23:48;3.75;;;1.88;;
35028;SDS011;35394;54.282;10.070;2023-10-13T01:24:20;3.75;;;1.88;;
35028;SDS011;35394;54.282;10.070;2023-10-13T01:24:54;3.92;;;1.88;;
35028;SDS011;35394;54.282;10.070;2023-10-13T01:25:34;4.28;;;2.00;;
35028;SDS011;35394;54.282;10.070;2023-10-13T01:26:05;3.27;;;1.80;;
35028;SDS011;35394;54.282;10.070;2023-10-13T01:26:36;4.20;;;1.92;;
35028;SDS011;35394;54.282;10.070;2023-10-13T01:27:10;2.83;;;1.92;;
35028;SDS011;35394;54.282;10.070;2023-10-13T01:27:55;4.25;;;1.90;;
35028;SDS011;35394;54.282;10.070;2023-10-13T01:28:26;3.72;;;2.17;;
35028;SDS011;35394;54.282;10.070;2023-10-13T01:28:57;3.63;;;2.00;;
35028;SDS011;35394;54.282;10.070;2023-10-13T01:29:28;3.75;;;2.00;;
35028;SDS011;35394;54.282;10.070;2023-10-13T01:29:59;3.70;;;2.00;;
35028;SDS011;35394;54.282;10.070;2023-10-13T01:30:35;4.93;;;2.20;;
35028;SDS011;35394;54.282;10.070;2023-10-13T01:31:09;4.60;;;2.10;;
35028;SDS011;35394;54.282;10.070;2023-10-13T01:31:42;4.00;;;2.00;;
35028;SDS011;35394;54.282;10.070;2023-10-13T01:32:19;3.47;;;2.10;;
35028;SDS011;35394;54.282;10.070;2023-10-13T01:32:51;4.50;;;2.20;;
35028;SDS011;35394;54.282;10.070;2023-10-13T01:33:23;3.83;;;2.10;;
35028;SDS011;35394;54.282;10.070;2023-10-13T01:33:57;4.75;;;2.00;;
35028;SDS011;35394;54.282;10.070;2023-10-13T01:34:31;4.10;;;2.00;;
35028;SDS011;35394;54.282;10.070;2023-10-13T01:35:03;4.70;;;2.20;;
35028;SDS011;35394;54.282;10.070;2023-10-13T01:35:37;3.65;;;1.85;;
35028;SDS011;35394;54.282;10.070;2023-10-13T01:36:17;4.00;;;2.00;;
35028;SDS011;35394;54.282;10.070;2023-10-13T01:36:51;4.20;;;2.00;;
35028;SDS011;35394;54.282;10.070;2023-10-13T01:37:23;3.95;;;2.10;;
35028;SDS011;35394;54.282;10.070;2023-10-13T01:37:53;5.80;;;2.40;;
35028;SDS011;35394;54.282;10.070;2023-10-13T01:38:24;4.57;;;2.10;;
35028;SDS011;35394;54.282;10.070;2023-10-13T01:39:03;4.15;;;2.03;;
35028;SDS011;35394;54.282;10.070;2023-10-13T01:39:34;3.30;;;2.10;;
35028;SDS011;35394;54.282;10.070;2023-10-13T01:40:04;2.92;;;1.70;;
35028;SDS011;35394;54.282;10.070;2023-10-13T01:40:35;3.63;;;2.08;;
35028;SDS011;35394;54.282;10.070;2023-10-13T01:41:06;4.55;;;1.98;;
35028;SDS011;35394;54.282;10.070;2023-10-13T01:41:38;3.35;;;2.10;;
35028;SDS011;35394;54.282;10.070;2023-10-13T01:42:09;3.38;;;1.80;;
35028;SDS011;35394;54.282;10.070;2023-10-13T01:42:45;3.97;;;1.98;;
35028;SDS011;35394;54.282;10.070;2023-10-13T01:43:16;3.97;;;2.10;;
35028;SDS011;35394;54.282;10.070;2023-10-13T01:43:47;3.77;;;2.07;;
35028;SDS011;35394;54.282;10.070;2023-10-13T01:44:18;3.27;;;1.90;;
35028;SDS011;35394;54.282;10.070;2023-10-13T01:44:50;4.07;;;1.90;;
35028;SDS011;35394;54.282;10.070;2023-10-13T01:45:21;4.30;;;2.00;;
35028;SDS011;35394;54.282;10.070;2023-10-13T01:45:58;4.25;;;2.00;;
35028;SDS011;35394;54.282;10.070;2023-10-13T01:46:29;3.25;;;1.75;;
35028;SDS011;35394;54.282;10.070;2023-10-13T01:47:00;3.95;;;2.13;;
35028;SDS011;35394;54.282;10.070;2023-10-13T01:47:37;3.00;;;1.73;;
35028;SDS011;35394;54.282;10.070;2023-10-13T01:48:09;3.28;;;2.00;;
35028;SDS011;35394;54.282;10.070;2023-10-13T01:48:40;4.05;;;2.10;;
35028;SDS011;35394;54.282;10.070;2023-10-13T01:49:11;3.97;;;2.00;;
35028;SDS011;35394;54.282;10.070;2023-10-13T01:49:42;3.83;;;1.90;;
35028;SDS011;35394;54.282;10.070;2023-10-13T01:50:16;3.97;;;2.08;;
35028;SDS011;35394;54.282;10.070;2023-10-13T01:50:57;3.00;;;2.08;;
35028;SDS011;35394;54.282;10.070;2023-10-13T01:51:30;4.45;;;2.15;;
35028;SDS011;35394;54.282;10.070;2023-10-13T01:52:00;3.67;;;1.90;;
35028;SDS011;35394;54.282;10.070;2023-10-13T01:52:33;4.55;;;2.00;;
35028;SDS011;35394;54.282;10.070;2023-10-13T01:53:03;4.13;;;2.10;;
35028;SDS011;35394;54.282;10.070;2023-10-13T01:54:00;3.50;;;2.17;;
35028;SDS011;35394;54.282;10.070;2023-10-13T01:54:33;3.63;;;2.03;;
35028;SDS011;35394;54.282;10.070;2023-10-13T01:55:04;4.40;;;2.10;;
35028;SDS011;35394;54.282;10.070;2023-10-13T01:55:38;3.20;;;1.80;;
35028;SDS011;35394;54.282;10.070;2023-10-13T01:56:15;5.10;;;2.08;;
35028;SDS011;35394;54.282;10.070;2023-10-13T01:56:45;5.27;;;2.23;;
35028;SDS011;35394;54.282;10.070;2023-10-13T01:57:16;3.95;;;2.10;;
35028;SDS011;35394;54.282;10.070;2023-10-13T01:57:47;3.75;;;2.10;;
35028;SDS011;35394;54.282;10.070;2023-10-13T01:58:18;3.50;;;1.98;;
35028;SDS011;35394;54.282;10.070;2023-10-13T01:58:52;4.00;;;2.00;;
35028;SDS011;35394;54.282;10.070;2023-10-13T01:59:23;3.30;;;2.10;;
35028;SDS011;35394;54.282;10.070;2023-10-13T01:59:56;2.88;;;1.90;;
35028;SDS011;35394;54.282;10.070;2023-10-13T02:00:26;3.75;;;2.15;;
35028;SDS011;35394;54.282;10.070;2023-10-13T02:01:01;4.18;;;2.20;;
35028;SDS011;35394;54.282;10.070;2023-10-13T02:01:35;3.55;;;2.00;;
35028;SDS011;35394;54.282;10.070;2023-10-13T02:02:05;3.25;;;2.08;;
35028;SDS011;35394;54.282;10.070;2023-10-13T02:02:37;3.00;;;1.90;;
35028;SDS011;35394;54.282;10.070;2023-10-13T02:03:15;3.42;;;2.00;;
35028;SDS011;35394;54.282;10.070;2023-10-13T02:03:46;3.72;;;2.10;;
35028;SDS011;35394;54.282;10.070;2023-10-13T02:04:17;3.53;;;2.00;;
35028;SDS011;35394;54.282;10.070;2023-10-13T02:04:51;4.97;;;2.35;;
35028;SDS011;35394;54.282;10.070;2023-10-13T02:05:30;3.33;;;2.00;;
35028;SDS011;35394;54.282;10.070;2023-10-13T02:06:06;4.05;;;2.05;;
35028;SDS011;35394;54.282;10.070;2023-10-13T02:06:40;4.35;;;2.35;;
35028;SDS011;35394;54.282;10.070;2023-10-13T02:07:10;3.43;;;2.10;;
35028;SDS011;35394;54.282;10.070;2023-10-13T02:07:45;4.22;;;2.20;;
35028;SDS011;35394;54.282;10.070;2023-10-13T02:08:16;3.90;;;2.08;;
35028;SDS011;35394;54.282;10.070;2023-10-13T02:08:57;4.22;;;2.15;;
35028;SDS011;35394;54.282;10.070;2023-10-13T02:09:32;3.67;;;2.25;;
35028;SDS011;35394;54.282;10.070;2023-10-13T02:10:07;3.60;;;2.00;;
35028;SDS011;35394;54.282;10.070;2023-10-13T02:10:42;3.15;;;1.80;;
35028;SDS011;35394;54.282;10.070;2023-10-13T02:11:13;3.50;;;2.00;;
35028;SDS011;35394;54.282;10.070;2023-10-13T02:11:48;4.68;;;2.10;;
35028;SDS011;35394;54.282;10.070;2023-10-13T02:12:24;3.15;;;2.00;;
35028;SDS011;35394;54.282;10.070;2023-10-13T02:13:12;3.80;;;2.05;;
35028;SDS011;35394;54.282;10.070;2023-10-13T02:13:47;3.63;;;2.17;;
35028;SDS011;35394;54.282;10.070;2023-10-13T02:14:20;4.07;;;2.20;;
35028;SDS011;35394;54.282;10.070;2023-10-13T02:14:55;4.20;;;2.30;;
35028;SDS011;35394;54.282;10.070;2023-10-13T02:15:30;3.83;;;2.30;;
35028;SDS011;35394;54.282;10.070;2023-10-13T02:16:04;4.15;;;2.33;;
35028;SDS011;35394;54.282;10.070;2023-10-13T02:16:37;4.47;;;2.13;;
35028;SDS011;35394;54.282;10.070;2023-10-13T02:17:08;3.63;;;1.90;;
35028;SDS011;35394;54.282;10.070;2023-10-13T02:17:42;3.30;;;2.08;;
35028;SDS011;35394;54.282;10.070;2023-10-13T02:18:15;3.38;;;2.10;;
35028;SDS011;35394;54.282;10.070;2023-10-13T02:18:55;4.03;;;2.00;;
35028;SDS011;35394;54.282;10.070;2023-10-13T02:19:27;3.58;;;2.10;;
35028;SDS011;35394;54.282;10.070;2023-10-13T02:19:58;4.00;;;2.20;;
35028;SDS011;35394;54.282;10.070;2023-10-13T02:20:38;3.13;;;2.20;;
35028;SDS011;35394;54.282;10.070;2023-10-13T02:21:15;4.20;;;2.10;;
35028;SDS011;35394;54.282;10.070;2023-10-13T02:21:46;4.17;;;2.10;;
35028;SDS011;35394;54.282;10.070;2023-10-13T02:22:28;4.18;;;2.08;;
35028;SDS011;35394;54.282;10.070;2023-10-13T02:23:01;3.88;;;2.20;;
35028;SDS011;35394;54.282;10.070;2023-10-13T02:23:32;3.40;;;2.13;;
35028;SDS011;35394;54.282;10.070;2023-10-13T02:24:03;4.53;;;2.20;;
35028;SDS011;35394;54.282;10.070;2023-10-13T02:24:34;4.88;;;2.40;;
35028;SDS011;35394;54.282;10.070;2023-10-13T02:25:09;3.47;;;2.25;;
35028;SDS011;35394;54.282;10.070;2023-10-13T02:25:47;5.10;;;2.20;;
35028;SDS011;35394;54.282;10.070;2023-10-13T02:26:17;3.88;;;2.28;;
35028;SDS011;35394;54.282;10.070;2023-10-13T02:27:00;4.80;;;2.47;;
35028;SDS011;35394;54.282;10.070;2023-10-13T02:27:34;4.33;;;2.23;;
35028;SDS011;35394;54.282;10.070;2023-10-13T02:28:11;4.03;;;2.30;;
35028;SDS011;35394;54.282;10.070;2023-10-13T02:28:51;3.80;;;2.25;;
35028;SDS011;35394;54.282;10.070;2023-10-13T02:29:22;3.72;;;2.20;;
35028;SDS011;35394;54.282;10.070;2023-10-13T02:29:53;4.27;;;2.20;;
35028;SDS011;35394;54.282;10.070;2023-10-13T02:30:28;4.03;;;2.40;;
35028;SDS011;35394;54.282;10.070;2023-10-13T02:31:02;3.38;;;2.22;;
35028;SDS011;35394;54.282;10.070;2023-10-13T02:31:36;3.28;;;2.20;;
35028;SDS011;35394;54.282;10.070;2023-10-13T02:32:08;4.20;;;2.20;;
35028;SDS011;35394;54.282;10.070;2023-10-13T02:32:58;3.80;;;2.20;;
35028;SDS011;35394;54.282;10.070;2023-10-13T02:33:35;4.25;;;2.25;;
35028;SDS011;35394;54.282;10.070;2023-10-13T02:34:14;5.18;;;2.30;;
35028;SDS011;35394;54.282;10.070;2023-10-13T02:34:45;4.30;;;2.30;;
35028;SDS011;35394;54.282;10.070;2023-10-13T02:35:16;4.20;;;2.20;;
35028;SDS011;35394;54.282;10.070;2023-10-13T02:35:48;4.40;;;2.22;;
35028;SDS011;35394;54.282;10.070;2023-10-13T02:36:25;3.63;;;2.17;;
35028;SDS011;35394;54.282;10.070;2023-10-13T02:37:06;3.70;;;2.30;;
35028;SDS011;35394;54.282;10.070;2023-10-13T02:37:39;4.03;;;2.30;;
35028;SDS011;35394;54.282;10.070;2023-10-13T02:38:13;4.20;;;2.17;;
35028;SDS011;35394;54.282;10.070;2023-10-13T02:38:45;4.68;;;2.40;;
35028;SDS011;35394;54.282;10.070;2023-10-13T02:39:16;3.72;;;2.20;;
35028;SDS011;35394;54.282;10.070;2023-10-13T02:39:47;4.20;;;2.42;;
35028;SDS011;35394;54.282;10.070;2023-10-13T02:40:18;3.23;;;2.10;;
35028;SDS011;35394;54.282;10.070;2023-10-13T02:40:53;3.90;;;2.15;;
35028;SDS011;35394;54.282;10.070;2023-10-13T02:41:25;4.30;;;2.30;;
35028;SDS011;35394;54.282;10.070;2023-10-13T02:41:56;2.80;;;2.10;;
35028;SDS011;35394;54.282;10.070;2023-10-13T02:42:26;3.53;;;2.35;;
35028;SDS011;35394;54.282;10.070;2023-10-13T02:42:57;4.87;;;2.60;;
35028;SDS011;35394;54.282;10.070;2023-10-13T02:43:27;4.95;;;2.40;;
35028;SDS011;35394;54.282;10.070;2023-10-13T02:44:03;4.13;;;2.50;;
35028;SDS011;35394;54.282;10.070;2023-10-13T02:44:36;4.75;;;2.28;;
35028;SDS011;35394;54.282;10.070;2023-10-13T02:45:08;4.10;;;2.50;;
35028;SDS011;35394;54.282;10.070;2023-10-13T02:45:42;4.47;;;2.47;;
35028;SDS011;35394;54.282;10.070;2023-10-13T02:46:27;3.75;;;2.40;;
35028;SDS011;35394;54.282;10.070;2023-10-13T02:46:59;4.38;;;2.45;;
35028;SDS011;35394;54.282;10.070;2023-10-13T02:47:30;3.27;;;2.27;;
35028;SDS011;35394;54.282;10.070;2023-10-13T02:48:02;4.40;;;2.30;;
35028;SDS011;35394;54.282;10.070;2023-10-13T02:48:41;5.13;;;2.50;;
35028;SDS011;35394;54.282;10.070;2023-10-13T02:49:16;4.97;;;2.40;;
35028;SDS011;35394;54.282;10.070;2023-10-13T02:49:49;4.05;;;2.42;;
35028;SDS011;35394;54.282;10.070;2023-10-13T02:50:20;3.55;;;2.33;;
35028;SDS011;35394;54.282;10.070;2023-10-13T02:50:55;4.47;;;2.20;;
35028;SDS011;35394;54.282;10.070;2023-10-13T02:51:36;3.88;;;2.50;;
35028;SDS011;35394;54.282;10.070;2023-10-13T02:52:07;4.95;;;2.40;;
35028;SDS011;35394;54.282;10.070;2023-10-13T02:52:38;5.75;;;2.50;;
35028;SDS011;35394;54.282;10.070;2023-10-13T02:53:11;3.78;;;2.50;;
35028;SDS011;35394;54.282;10.070;2023-10-13T02:53:48;5.22;;;2.58;;
35028;SDS011;35394;54.282;10.070;2023-10-13T02:54:20;4.78;;;2.60;;
35028;SDS011;35394;54.282;10.070;2023-10-13T02:54:50;4.03;;;2.25;;
35028;SDS011;35394;54.282;10.070;2023-10-13T02:55:21;4.27;;;2.40;;
35028;SDS011;35394;54.282;10.070;2023-10-13T02:55:55;4.15;;;2.42;;
35028;SDS011;35394;54.282;10.070;2023-10-13T02:56:34;3.90;;;2.67;;
35028;SDS011;35394;54.282;10.070;2023-10-13T02:57:06;4.03;;;2.60;;
35028;SDS011;35394;54.282;10.070;2023-10-13T02:57:37;3.93;;;2.53;;
35028;SDS011;35394;54.282;10.070;2023-10-13T02:58:09;3.85;;;2.38;;
35028;SDS011;35394;54.282;10.070;2023-10-13T02:58:40;4.85;;;2.75;;
35028;SDS011;35394;54.282;10.070;2023-10-13T02:59:15;5.28;;;2.67;;
35028;SDS011;35394;54.282;10.070;2023-10-13T02:59:49;3.75;;;2.50;;
35028;SDS011;35394;54.282;10.070;2023-10-13T03:00:28;5.18;;;2.72;;
35028;SDS011;35394;54.282;10.070;2023-10-13T03:01:01;5.65;;;2.65;;
35028;SDS011;35394;54.282;10.070;2023-10-13T03:01:33;5.25;;;2.42;;
35028;SDS011;35394;54.282;10.070;2023-10-13T03:02:05;6.28;;;2.97;;
35028;SDS011;35394;54.282;10.070;2023-10-13T03:02:50;5.03;;;2.72;;
35028;SDS011;35394;54.282;10.070;2023-10-13T03:03:28;5.03;;;2.88;;
35028;SDS011;35394;54.282;10.070;2023-10-13T03:04:00;5.40;;;2.75;;
35028;SDS011;35394;54.282;10.070;2023-10-13T03:04:33;5.63;;;2.80;;
35028;SDS011;35394;54.282;10.070;2023-10-13T03:05:03;6.03;;;2.90;;
35028;SDS011;35394;54.282;10.070;2023-10-13T03:05:43;5.60;;;3.00;;
35028;SDS011;35394;54.282;10.070;2023-10-13T03:06:15;5.97;;;2.85;;
35028;SDS011;35394;54.282;10.070;2023-10-13T03:06:47;6.53;;;3.05;;
35028;SDS011;35394;54.282;10.070;2023-10-13T03:07:18;6.25;;;2.95;;
35028;SDS011;35394;54.282;10.070;2023-10-13T03:07:53;6.53;;;3.20;;
35028;SDS011;35394;54.282;10.070;2023-10-13T03:08:25;6.88;;;3.17;;
35028;SDS011;35394;54.282;10.070;2023-10-13T03:08:56;5.23;;;3.00;;
35028;SDS011;35394;54.282;10.070;2023-10-13T03:09:26;6.13;;;3.23;;
35028;SDS011;35394;54.282;10.070;2023-10-13T03:09:58;5.75;;;3.25;;
35028;SDS011;35394;54.282;10.070;2023-10-13T03:10:39;7.18;;;3.33;;
35028;SDS011;35394;54.282;10.070;2023-10-13T03:11:16;6.60;;;3.30;;
35028;SDS011;35394;54.282;10.070;2023-10-13T03:11:51;8.70;;;3.58;;
35028;SDS011;35394;54.282;10.070;2023-10-13T03:12:22;6.53;;;3.33;;
35028;SDS011;35394;54.282;10.070;2023-10-13T03:12:54;7.07;;;3.30;;
35028;SDS011;35394;54.282;10.070;2023-10-13T03:13:25;7.40;;;3.30;;
35028;SDS011;35394;54.282;10.070;2023-10-13T03:13:56;6.00;;;3.30;;
35028;SDS011;35394;54.282;10.070;2023-10-13T03:14:27;5.33;;;3.00;;
35028;SDS011;35394;54.282;10.070;2023-10-13T03:15:04;6.10;;;3.20;;
35028;SDS011;35394;54.282;10.070;2023-10-13T03:15:47;6.50;;;3.30;;
35028;SDS011;35394;54.282;10.070;2023-10-13T03:16:18;6.38;;;3.50;;
35028;SDS011;35394;54.282;10.070;2023-10-13T03:16:55;7.43;;;3.60;;
35028;SDS011;35394;54.282;10.070;2023-10-13T03:17:39;7.05;;;3.50;;
35028;SDS011;35394;54.282;10.070;2023-10-13T03:18:16;7.07;;;3.50;;
35028;SDS011;35394;54.282;10.070;2023-10-13T03:18:48;6.88;;;3.58;;
35028;SDS011;35394;54.282;10.070;2023-10-13T03:19:23;7.97;;;3.70;;
35028;SDS011;35394;54.282;10.070;2023-10-13T03:20:02;6.32;;;3.60;;
35028;SDS011;35394;54.282;10.070;2023-10-13T03:20:38;6.88;;;3.70;;
35028;SDS011;35394;54.282;10.070;2023-10-13T03:21:14;6.78;;;3.67;;
35028;SDS011;35394;54.282;10.070;2023-10-13T03:22:01;6.93;;;3.80;;
35028;SDS011;35394;54.282;10.070;2023-10-13T03:22:39;9.07;;;4.15;;
35028;SDS011;35394;54.282;10.070;2023-10-13T03:23:11;8.57;;;4.10;;
35028;SDS011;35394;54.282;10.070;2023-10-13T03:23:41;8.70;;;4.03;;